createdAt,value
2018-03-27T00:02:21.833Z,98635.11
2018-03-27T00:04:49.430Z,98636.57
2018-03-27T00:07:17.029Z,98641.38
2018-03-27T00:09:44.841Z,98627.58
2018-03-27T00:12:12.436Z,98622.27
2018-03-27T00:14:40.040Z,98625.73
2018-03-27T00:17:07.895Z,98619.70
2018-03-27T00:19:35.494Z,98614.33
2018-03-27T00:22:03.102Z,98614.08
2018-03-27T00:24:46.486Z,98607.03
2018-03-27T00:27:13.820Z,98603.70
2018-03-27T00:29:53.186Z,98606.59
2018-03-27T00:32:32.738Z,98615.70
2018-03-27T00:35:12.117Z,98611.24
2018-03-27T00:37:51.761Z,98603.22
2018-03-27T00:40:31.317Z,98594.74
2018-03-27T00:43:03.050Z,98591.98
2018-03-27T00:45:30.658Z,98584.75
2018-03-27T00:47:58.486Z,98584.21
2018-03-27T00:50:26.089Z,98586.89
2018-03-27T00:52:53.674Z,98592.77
2018-03-27T00:55:21.441Z,98588.25
2018-03-27T00:57:49.025Z,98584.30
2018-03-27T01:00:16.739Z,98586.00
2018-03-27T01:02:44.494Z,98586.62
2018-03-27T01:05:12.095Z,98596.00
2018-03-27T01:07:39.694Z,98609.70
2018-03-27T01:10:07.448Z,98616.14
2018-03-27T01:12:35.267Z,98611.68
2018-03-27T01:15:03.085Z,98612.20
2018-03-27T01:17:30.903Z,98613.61
2018-03-27T01:19:58.502Z,98611.90
2018-03-27T01:22:26.132Z,98616.52
2018-03-27T01:24:53.750Z,98612.86
2018-03-27T01:27:21.578Z,98612.16
2018-03-27T01:29:49.395Z,98615.88
2018-03-27T01:32:17.212Z,98609.52
2018-03-27T01:34:45.032Z,98623.45
2018-03-27T01:37:12.626Z,98617.66
2018-03-27T01:39:40.220Z,98624.68
2018-03-27T01:42:07.820Z,98628.66
2018-03-27T01:44:35.406Z,98620.67
2018-03-27T01:47:03.001Z,98624.04
2018-03-27T01:49:30.739Z,98622.88
2018-03-27T01:51:58.394Z,98631.77
2018-03-27T01:54:25.978Z,98631.52
2018-03-27T01:56:53.566Z,98633.62
2018-03-27T01:59:21.416Z,98634.05
2018-03-27T02:01:49.019Z,98634.59
2018-03-27T02:04:16.850Z,98628.99
2018-03-27T02:06:44.434Z,98622.73
2018-03-27T02:09:12.219Z,98628.57
2018-03-27T02:11:45.485Z,98634.14
2018-03-27T02:14:18.774Z,98634.30
2018-03-27T02:16:51.765Z,98637.61
2018-03-27T02:19:25.140Z,98638.34
2018-03-27T02:21:52.322Z,98636.75
2018-03-27T02:24:21.954Z,98638.67
2018-03-27T02:26:49.707Z,98640.96
2018-03-27T02:29:17.510Z,98645.09
2018-03-27T02:31:45.110Z,98641.46
2018-03-27T02:34:12.698Z,98644.91
2018-03-27T02:36:40.308Z,98645.38
2018-03-27T02:39:07.903Z,98638.67
2018-03-27T02:41:35.700Z,98639.16
2018-03-27T02:44:03.319Z,98644.52
2018-03-27T02:46:30.937Z,98642.13
2018-03-27T02:48:58.534Z,98645.60
2018-03-27T02:51:26.372Z,98645.92
2018-03-27T02:53:54.018Z,98648.61
2018-03-27T02:56:21.775Z,98653.33
2018-03-27T02:58:49.727Z,98654.36
2018-03-27T03:01:17.358Z,98657.02
2018-03-27T03:03:45.010Z,98652.30
2018-03-27T03:06:12.609Z,98651.75
2018-03-27T03:08:40.198Z,98652.64
2018-03-27T03:11:08.017Z,98659.64
2018-03-27T03:13:35.606Z,98650.78
2018-03-27T03:16:03.266Z,98649.81
2018-03-27T03:18:30.850Z,98650.20
2018-03-27T03:20:58.444Z,98638.31
2018-03-27T03:23:26.124Z,98653.30
2018-03-27T03:25:53.924Z,98656.70
2018-03-27T03:28:21.524Z,98655.06
2018-03-27T03:30:49.118Z,98644.48
2018-03-27T03:33:16.979Z,98641.65
2018-03-27T03:35:44.797Z,98639.45
2018-03-27T03:38:12.393Z,98637.55
2018-03-27T03:40:39.985Z,98635.19
2018-03-27T03:43:07.751Z,98639.67
2018-03-27T03:45:35.346Z,98639.27
2018-03-27T03:48:02.931Z,98636.72
2018-03-27T03:50:30.782Z,98638.83
2018-03-27T03:52:58.599Z,98635.05
2018-03-27T03:55:26.182Z,98641.08
2018-03-27T03:57:53.774Z,98638.92
2018-03-27T04:00:21.377Z,98638.72
2018-03-27T04:02:48.970Z,98650.22
2018-03-27T04:05:16.597Z,98654.18
2018-03-27T04:07:44.237Z,98650.66
2018-03-27T04:10:12.012Z,98654.33
2018-03-27T04:12:39.606Z,98655.52
2018-03-27T04:15:07.238Z,98653.81
2018-03-27T04:17:34.819Z,98660.84
2018-03-27T04:20:02.418Z,98659.95
2018-03-27T04:22:30.244Z,98657.85
2018-03-27T04:24:57.899Z,98658.67
2018-03-27T04:27:25.482Z,98663.42
2018-03-27T04:29:53.076Z,98658.80
2018-03-27T04:32:20.685Z,98667.45
2018-03-27T04:34:48.280Z,98667.97
2018-03-27T04:37:15.887Z,98668.78
2018-03-27T04:39:43.632Z,98669.22
2018-03-27T04:42:11.272Z,98673.77
2018-03-27T04:44:38.867Z,98675.86
2018-03-27T04:47:06.617Z,98676.83
2018-03-27T04:49:34.436Z,98673.16
2018-03-27T04:52:02.018Z,98672.09
2018-03-27T04:54:29.616Z,98668.66
2018-03-27T04:56:57.391Z,98676.09
2018-03-27T04:59:25.046Z,98680.48
2018-03-27T05:01:52.804Z,98683.63
2018-03-27T05:04:20.442Z,98683.63
2018-03-27T05:06:48.038Z,98690.79
2018-03-27T05:09:15.619Z,98688.88
2018-03-27T05:11:43.210Z,98691.45
2018-03-27T05:14:10.793Z,98694.10
2018-03-27T05:16:38.633Z,98684.47
2018-03-27T05:19:06.219Z,98692.30
2018-03-27T05:21:33.856Z,98699.18
2018-03-27T05:24:01.688Z,98695.81
2018-03-27T05:26:29.493Z,98702.17
2018-03-27T05:28:57.089Z,98705.72
2018-03-27T05:31:24.706Z,98708.61
2018-03-27T05:33:52.362Z,98714.22
2018-03-27T05:36:19.946Z,98717.94
2018-03-27T05:38:47.696Z,98716.58
2018-03-27T05:41:15.518Z,98721.14
2018-03-27T05:43:43.334Z,98721.76
2018-03-27T05:46:11.141Z,98720.60
2018-03-27T05:48:38.969Z,98719.30
2018-03-27T05:51:06.619Z,98721.23
2018-03-27T05:53:34.218Z,98722.34
2018-03-27T05:56:02.041Z,98722.17
2018-03-27T05:58:29.643Z,98715.19
2018-03-27T06:00:57.462Z,98713.37
2018-03-27T06:03:25.061Z,98714.13
2018-03-27T06:05:52.942Z,98710.50
2018-03-27T06:08:20.594Z,98712.20
2018-03-27T06:10:48.409Z,98702.44
2018-03-27T06:13:16.224Z,98701.94
2018-03-27T06:15:43.879Z,98702.80
2018-03-27T06:18:11.470Z,98706.55
2018-03-27T06:20:39.102Z,98705.57
2018-03-27T06:23:06.690Z,98702.31
2018-03-27T06:25:34.351Z,98705.37
2018-03-27T06:28:02.160Z,98705.61
2018-03-27T06:30:29.800Z,98709.16
2018-03-27T06:33:00.707Z,98699.49
2018-03-27T06:35:28.965Z,98709.18
2018-03-27T06:37:56.558Z,98710.09
2018-03-27T06:40:24.815Z,98702.89
2018-03-27T06:42:53.323Z,98700.27
2018-03-27T06:45:20.914Z,98706.07
2018-03-27T06:47:48.731Z,98714.88
2018-03-27T06:50:16.541Z,98710.70
2018-03-27T06:52:44.136Z,98716.58
2018-03-27T06:55:11.731Z,98720.95
2018-03-27T06:57:39.322Z,98722.20
2018-03-27T07:00:07.008Z,98724.70
2018-03-27T07:02:34.750Z,98728.98
2018-03-27T07:05:02.342Z,98723.00
2018-03-27T07:07:29.935Z,98728.46
2018-03-27T07:09:57.684Z,98722.50
2018-03-27T07:12:25.512Z,98723.58
2018-03-27T07:14:54.484Z,98725.38
2018-03-27T07:17:22.270Z,98725.09
2018-03-27T07:19:50.002Z,98720.58
2018-03-27T07:22:17.669Z,98727.61
2018-03-27T07:24:45.501Z,98739.76
2018-03-27T07:27:13.081Z,98733.10
2018-03-27T07:29:40.726Z,98736.05
2018-03-27T07:32:08.302Z,98734.04
2018-03-27T07:34:36.171Z,98734.08
2018-03-27T07:37:03.832Z,98748.31
2018-03-27T07:39:31.414Z,98742.16
2018-03-27T07:41:59.005Z,98741.22
2018-03-27T07:44:26.585Z,98744.94
2018-03-27T07:46:54.462Z,98744.52
2018-03-27T07:49:22.158Z,98743.61
2018-03-27T07:51:49.746Z,98742.62
2018-03-27T07:54:17.519Z,98742.69
2018-03-27T07:56:45.107Z,98749.14
2018-03-27T07:59:12.952Z,98744.81
2018-03-27T08:01:40.561Z,98739.88
2018-03-27T08:04:08.210Z,98753.16
2018-03-27T08:06:35.804Z,98753.81
2018-03-27T08:09:03.723Z,98756.39
2018-03-27T08:11:31.327Z,98745.83
2018-03-27T08:13:58.941Z,98742.03
2018-03-27T08:16:26.542Z,98743.11
2018-03-27T08:18:54.140Z,98746.22
2018-03-27T08:21:22.013Z,98751.13
2018-03-27T08:23:49.831Z,98742.95
2018-03-27T08:26:17.414Z,98746.83
2018-03-27T08:28:45.005Z,98751.64
2018-03-27T08:31:12.785Z,98753.72
2018-03-27T08:33:40.604Z,98753.27
2018-03-27T08:36:08.213Z,98747.44
2018-03-27T08:38:35.842Z,98749.13
2018-03-27T08:41:03.490Z,98749.98
2018-03-27T08:43:31.119Z,98750.41
2018-03-27T08:45:58.785Z,98743.72
2018-03-27T08:48:26.612Z,98740.77
2018-03-27T08:50:54.430Z,98749.27
2018-03-27T08:53:22.250Z,98748.84
2018-03-27T08:55:50.027Z,98751.80
2018-03-27T08:58:17.627Z,98747.53
2018-03-27T09:00:45.215Z,98747.14
2018-03-27T09:03:13.003Z,98750.08
2018-03-27T09:05:40.840Z,98751.83
2018-03-27T09:08:08.450Z,98759.09
2018-03-27T09:10:36.255Z,98749.86
2018-03-27T09:13:04.096Z,98751.22
2018-03-27T09:15:31.718Z,98750.83
2018-03-27T09:17:59.306Z,98756.50
2018-03-27T09:20:27.026Z,98748.30
2018-03-27T09:22:54.866Z,98753.24
2018-03-27T09:25:22.686Z,98757.74
2018-03-27T09:27:50.302Z,98753.88
2018-03-27T09:30:18.122Z,98752.21
2018-03-27T09:32:45.723Z,98747.22
2018-03-27T09:35:13.566Z,98744.39
2018-03-27T09:37:41.163Z,98747.78
2018-03-27T09:40:08.758Z,98741.15
2018-03-27T09:42:36.613Z,98746.95
2018-03-27T09:45:04.230Z,98754.59
2018-03-27T09:47:31.964Z,98747.81
2018-03-27T09:49:59.767Z,98743.52
2018-03-27T09:52:27.358Z,98747.34
2018-03-27T09:54:55.005Z,98748.92
2018-03-27T09:57:22.813Z,98747.52
2018-03-27T09:59:50.641Z,98749.11
2018-03-27T10:02:18.239Z,98750.91
2018-03-27T10:04:45.817Z,98750.93
2018-03-27T10:07:13.455Z,98751.16
2018-03-27T10:09:41.212Z,98747.88
2018-03-27T10:12:08.797Z,98752.22
2018-03-27T10:14:36.648Z,98746.55
2018-03-27T10:17:04.233Z,98757.38
2018-03-27T10:19:31.975Z,98759.86
2018-03-27T10:21:59.582Z,98752.52
2018-03-27T10:24:27.174Z,98759.33
2018-03-27T10:26:54.801Z,98754.48
2018-03-27T10:29:22.378Z,98752.65
2018-03-27T10:31:49.974Z,98755.51
2018-03-27T10:34:17.658Z,98755.47
2018-03-27T10:36:45.299Z,98753.40
2018-03-27T10:39:13.238Z,98757.22
2018-03-27T10:41:41.006Z,98754.56
2018-03-27T10:44:08.609Z,98754.03
2018-03-27T10:46:36.386Z,98748.92
2018-03-27T10:49:03.999Z,98752.95
2018-03-27T10:51:31.612Z,98747.72
2018-03-27T10:53:59.261Z,98745.23
2018-03-27T10:56:27.055Z,98748.69
2018-03-27T10:58:54.650Z,98747.70
2018-03-27T11:01:22.380Z,98748.16
2018-03-27T11:03:49.960Z,98747.94
2018-03-27T11:06:17.558Z,98745.27
2018-03-27T11:08:45.316Z,98749.96
2018-03-27T11:11:13.162Z,98750.20
2018-03-27T11:13:40.981Z,98740.73
2018-03-27T11:16:08.614Z,98745.61
2018-03-27T11:18:36.198Z,98746.28
2018-03-27T11:21:04.036Z,98748.94
2018-03-27T11:23:31.652Z,98744.17
2018-03-27T11:25:59.256Z,98746.38
2018-03-27T11:28:26.856Z,98746.62
2018-03-27T11:30:54.464Z,98743.59
2018-03-27T11:33:22.225Z,98750.41
2018-03-27T11:35:49.960Z,98754.61
2018-03-27T11:38:17.607Z,98755.78
2018-03-27T11:40:45.188Z,98757.92
2018-03-27T11:43:12.998Z,98761.25
2018-03-27T11:45:40.815Z,98757.10
2018-03-27T11:48:08.410Z,98755.53
2018-03-27T11:50:36.006Z,98747.56
2018-03-27T11:53:03.654Z,98756.63
2018-03-27T11:55:31.497Z,98757.80
2018-03-27T11:57:59.406Z,98763.05
2018-03-27T12:00:27.226Z,98764.89
2018-03-27T12:02:54.833Z,98759.74
2018-03-27T12:05:22.415Z,98758.84
2018-03-27T12:07:50.178Z,98759.58
2018-03-27T12:10:17.998Z,98755.11
2018-03-27T12:12:45.815Z,98753.91
2018-03-27T12:15:13.475Z,98753.77
2018-03-27T12:17:41.265Z,98763.80
2018-03-27T12:20:08.862Z,98759.08
2018-03-27T12:22:36.689Z,98761.42
2018-03-27T12:25:04.351Z,98765.89
2018-03-27T12:27:31.954Z,98764.80
2018-03-27T12:29:59.550Z,98760.58
2018-03-27T12:32:27.362Z,98760.33
2018-03-27T12:34:54.998Z,98764.36
2018-03-27T12:37:22.558Z,98764.39
2018-03-27T12:39:50.391Z,98761.70
2018-03-27T12:42:17.956Z,98750.23
2018-03-27T12:44:45.751Z,98760.75
2018-03-27T12:47:13.565Z,98760.75
2018-03-27T12:49:41.256Z,98753.45
2018-03-27T12:52:08.977Z,98754.57
2018-03-27T12:54:36.689Z,98754.47
2018-03-27T12:57:04.295Z,98755.22
2018-03-27T12:59:31.947Z,98751.92
2018-03-27T13:01:59.505Z,98752.05
2018-03-27T13:04:27.070Z,98756.13
2018-03-27T13:06:54.682Z,98755.38
2018-03-27T13:09:22.430Z,98754.42
2018-03-27T13:11:50.324Z,98750.18
2018-03-27T13:14:17.939Z,98757.56
2018-03-27T13:16:45.622Z,98751.30
2018-03-27T13:19:13.215Z,98750.33
2018-03-27T13:21:41.022Z,98744.37
2018-03-27T13:24:08.614Z,98750.59
2018-03-27T13:26:36.275Z,98750.55
2018-03-27T13:29:03.933Z,98755.87
2018-03-27T13:31:31.651Z,98762.72
2018-03-27T13:33:59.412Z,98750.59
2018-03-27T13:36:27.133Z,98760.45
2018-03-27T13:38:55.398Z,98751.59
2018-03-27T13:41:23.168Z,98753.01
2018-03-27T13:43:50.730Z,98750.52
2018-03-27T13:46:18.286Z,98746.47
2018-03-27T13:48:46.123Z,98746.34
2018-03-27T13:51:13.698Z,98748.56
2018-03-27T13:53:41.258Z,98746.50
2018-03-27T13:56:08.851Z,98752.06
2018-03-27T13:58:36.410Z,98748.52
2018-03-27T14:01:04.281Z,98747.16
2018-03-27T14:03:31.838Z,98748.57
2018-03-27T14:05:59.748Z,98746.70
2018-03-27T14:08:27.315Z,98748.76
2018-03-27T14:10:55.087Z,98754.83
2018-03-27T14:13:22.650Z,98741.19
2018-03-27T14:15:50.421Z,98742.13
2018-03-27T14:18:19.144Z,98746.72
2018-03-27T14:20:46.960Z,98753.48
2018-03-27T14:23:14.589Z,98748.13
2018-03-27T14:25:42.282Z,98753.47
2018-03-27T14:28:09.842Z,98761.10
2018-03-27T14:30:37.635Z,98755.47
2018-03-27T14:33:05.451Z,98752.94
2018-03-27T14:35:33.294Z,98761.63
2018-03-27T14:38:01.088Z,98757.22
2018-03-27T14:40:28.914Z,98765.62
2018-03-27T14:42:56.478Z,98757.70
2018-03-27T14:45:24.061Z,98758.29
2018-03-27T14:47:51.631Z,98758.04
2018-03-27T14:50:19.378Z,98766.73
2018-03-27T14:52:47.297Z,98770.34
2018-03-27T14:55:15.005Z,98767.63
2018-03-27T14:57:42.574Z,98771.73
2018-03-27T15:00:10.150Z,98774.08
2018-03-27T15:02:37.730Z,98775.54
2018-03-27T15:05:05.310Z,98777.45
2018-03-27T15:07:32.881Z,98782.73
2018-03-27T15:10:00.502Z,98778.44
2018-03-27T15:12:28.069Z,98771.38
2018-03-27T15:14:55.636Z,98774.28
2018-03-27T15:17:23.207Z,98774.16
2018-03-27T15:19:51.001Z,98783.67
2018-03-27T15:22:18.702Z,98779.67
2018-03-27T15:24:46.279Z,98777.43
2018-03-27T15:27:14.128Z,98781.07
2018-03-27T15:29:41.695Z,98776.61
2018-03-27T15:32:09.482Z,98788.66
2018-03-27T15:34:37.041Z,98782.49
2018-03-27T15:37:04.622Z,98788.06
2018-03-27T15:39:32.214Z,98790.95
2018-03-27T15:41:59.774Z,98788.20
2018-03-27T15:44:27.571Z,98783.91
2018-03-27T15:46:55.134Z,98782.18
2018-03-27T15:49:22.910Z,98778.42
2018-03-27T15:51:50.479Z,98774.05
2018-03-27T15:54:18.126Z,98777.27
2018-03-27T15:56:45.709Z,98785.73
2018-03-27T15:59:13.285Z,98780.31
2018-03-27T16:01:40.901Z,98777.20
2018-03-27T16:04:08.467Z,98783.13
2018-03-27T16:06:36.033Z,98784.96
2018-03-27T16:09:03.706Z,98789.37
2018-03-27T16:11:31.278Z,98794.78
2018-03-27T16:13:59.102Z,98791.65
2018-03-27T16:16:26.905Z,98791.16
2018-03-27T16:18:54.723Z,98793.41
2018-03-27T16:21:22.433Z,98787.31
2018-03-27T16:23:50.007Z,98787.36
2018-03-27T16:26:17.737Z,98786.69
2018-03-27T16:28:45.463Z,98792.16
2018-03-27T16:31:13.066Z,98792.23
2018-03-27T16:33:40.665Z,98790.88
2018-03-27T16:36:08.293Z,98796.50
2018-03-27T16:38:36.021Z,98794.80
2018-03-27T16:41:03.593Z,98794.68
2018-03-27T16:43:31.182Z,98803.66
2018-03-27T16:45:58.903Z,98802.98
2018-03-27T16:48:26.619Z,98799.22
2018-03-27T16:50:54.335Z,98806.85
2018-03-27T16:53:21.950Z,98805.37
2018-03-27T16:55:49.694Z,98808.80
2018-03-27T16:58:17.302Z,98812.37
2018-03-27T17:00:44.930Z,98816.73
2018-03-27T17:03:12.497Z,98811.34
2018-03-27T17:05:40.078Z,98812.06
2018-03-27T17:08:07.883Z,98812.36
2018-03-27T17:10:35.586Z,98810.08
2018-03-27T17:13:03.150Z,98822.58
2018-03-27T17:15:30.829Z,98819.70
2018-03-27T17:17:58.655Z,98827.55
2018-03-27T17:20:26.222Z,98828.09
2018-03-27T17:22:53.839Z,98826.15
2018-03-27T17:25:21.610Z,98830.52
2018-03-27T17:27:49.188Z,98827.55
2018-03-27T17:30:16.925Z,98827.29
2018-03-27T17:32:44.638Z,98832.34
2018-03-27T17:35:12.482Z,98832.45
2018-03-27T17:37:40.052Z,98838.38
2018-03-27T17:40:07.610Z,98841.48
2018-03-27T17:42:35.192Z,98844.57
2018-03-27T17:45:02.753Z,98850.91
2018-03-27T17:47:30.572Z,98849.19
2018-03-27T17:49:58.270Z,98844.28
2018-03-27T17:52:26.107Z,98851.16
2018-03-27T17:54:53.674Z,98852.77
2018-03-27T17:57:21.238Z,98849.00
2018-03-27T17:59:49.061Z,98853.41
2018-03-27T18:02:16.671Z,98850.98
2018-03-27T18:04:44.238Z,98848.55
2018-03-27T18:07:11.859Z,98847.98
2018-03-27T18:09:39.503Z,98844.98
2018-03-27T18:12:07.251Z,98848.33
2018-03-27T18:14:35.070Z,98849.39
2018-03-27T18:17:02.888Z,98854.98
2018-03-27T18:19:30.497Z,98867.02
2018-03-27T18:21:58.078Z,98861.62
2018-03-27T18:24:25.810Z,98865.83
2018-03-27T18:26:53.453Z,98867.53
2018-03-27T18:29:21.151Z,98874.25
2018-03-27T18:31:48.718Z,98879.53
2018-03-27T18:34:16.294Z,98880.28
2018-03-27T18:36:43.862Z,98880.42
2018-03-27T18:39:11.458Z,98879.05
2018-03-27T18:41:39.061Z,98886.28
2018-03-27T18:44:06.771Z,98890.95
2018-03-27T18:46:34.342Z,98891.54
2018-03-27T18:49:01.907Z,98897.55
2018-03-27T18:51:29.484Z,98899.00
2018-03-27T18:53:57.230Z,98891.78
2018-03-27T18:56:24.820Z,98903.48
2018-03-27T18:58:52.400Z,98897.14
2018-03-27T19:01:20.097Z,98900.70
2018-03-27T19:03:47.666Z,98906.81
2018-03-27T19:06:15.238Z,98902.21
2018-03-27T19:08:42.817Z,98895.00
2018-03-27T19:11:10.586Z,98906.81
2018-03-27T19:13:38.170Z,98908.32
2018-03-27T19:16:06.018Z,98908.36
2018-03-27T19:18:33.642Z,98912.89
2018-03-27T19:21:01.453Z,98919.66
2018-03-27T19:23:29.021Z,98922.66
2018-03-27T19:25:56.792Z,98918.37
2018-03-27T19:28:24.375Z,98921.69
2018-03-27T19:30:52.225Z,98923.11
2018-03-27T19:33:19.791Z,98932.73
2018-03-27T19:35:47.662Z,98936.63
2018-03-27T19:38:15.225Z,98938.48
2018-03-27T19:40:42.964Z,98941.55
2018-03-27T19:43:10.601Z,98942.77
2018-03-27T19:45:38.167Z,98948.52
2018-03-27T19:48:05.770Z,98948.30
2018-03-27T19:50:33.569Z,98939.70
2018-03-27T19:53:01.394Z,98947.82
2018-03-27T19:55:29.188Z,98937.67
2018-03-27T19:57:56.903Z,98938.34
2018-03-27T20:00:24.482Z,98945.45
2018-03-27T20:02:52.265Z,98940.47
2018-03-27T20:05:20.573Z,98937.47
2018-03-27T20:07:48.501Z,98946.91
2018-03-27T20:10:16.319Z,98946.53
2018-03-27T20:12:44.136Z,98950.47
2018-03-27T20:15:11.956Z,98945.52
2018-03-27T20:17:39.778Z,98941.27
2018-03-27T20:20:07.342Z,98944.68
2018-03-27T20:22:35.058Z,98935.72
2018-03-27T20:25:02.622Z,98947.88
2018-03-27T20:27:30.238Z,98942.92
2018-03-27T20:29:57.811Z,98941.98
2018-03-27T20:32:25.392Z,98938.62
2018-03-27T20:34:53.722Z,98940.53
2018-03-27T20:37:21.725Z,98937.07
2018-03-27T20:39:49.816Z,98933.30
2018-03-27T20:42:17.410Z,98933.83
2018-03-27T20:44:45.046Z,98930.59
2018-03-27T20:47:12.754Z,98924.48
2018-03-27T20:49:40.474Z,98919.52
2018-03-27T20:52:08.063Z,98922.62
2018-03-27T20:54:35.635Z,98916.91
2018-03-27T20:57:03.226Z,98906.71
2018-03-27T20:59:30.961Z,98901.78
2018-03-27T21:01:58.720Z,98904.86
2018-03-27T21:04:26.519Z,98907.76
2018-03-27T21:06:54.085Z,98909.28
2018-03-27T21:09:21.663Z,98909.80
2018-03-27T21:11:49.233Z,98908.46
2018-03-27T21:14:16.958Z,98907.27
2018-03-27T21:16:44.674Z,98903.29
2018-03-27T21:19:12.295Z,98903.52
2018-03-27T21:21:39.877Z,98902.10
2018-03-27T21:24:07.483Z,98900.88
2018-03-27T21:26:35.045Z,98891.53
2018-03-27T21:29:02.636Z,98900.08
2018-03-27T21:31:30.211Z,98901.02
2018-03-27T21:33:57.824Z,98895.39
2018-03-27T21:36:25.390Z,98899.86
2018-03-27T21:38:52.953Z,98891.79
2018-03-27T21:41:20.519Z,98893.08
2018-03-27T21:43:48.090Z,98891.02
2018-03-27T21:46:15.673Z,98884.91
2018-03-27T21:48:43.298Z,98888.79
2018-03-27T21:51:10.866Z,98888.47
2018-03-27T21:53:38.430Z,98888.98
2018-03-27T21:56:06.006Z,98879.79
2018-03-27T21:58:33.573Z,98876.86
2018-03-27T22:01:01.148Z,98876.19
2018-03-27T22:03:41.536Z,98874.32
2018-03-27T22:06:09.300Z,98871.66
2018-03-27T22:08:36.866Z,98869.47
2018-03-27T22:11:04.454Z,98860.60
2018-03-27T22:13:32.032Z,98861.47
2018-03-27T22:15:59.780Z,98854.37
2018-03-27T22:18:27.346Z,98853.97
2018-03-27T22:20:54.945Z,98848.41
2018-03-27T22:23:22.554Z,98860.82
2018-03-27T22:25:50.119Z,98859.24
2018-03-27T22:28:17.759Z,98868.23
2018-03-27T22:30:45.341Z,98869.12
2018-03-27T22:33:12.996Z,98866.47
2018-03-27T22:35:40.558Z,98861.05
2018-03-27T22:38:08.113Z,98858.25
2018-03-27T22:40:35.736Z,98860.27
2018-03-27T22:43:03.443Z,98854.57
2018-03-27T22:45:31.013Z,98851.20
2018-03-27T22:47:58.689Z,98854.31
2018-03-27T22:50:26.392Z,98858.25
2018-03-27T22:52:53.953Z,98858.95
2018-03-27T22:55:21.523Z,98863.67
2018-03-27T22:57:49.138Z,98864.86
2018-03-27T23:00:21.699Z,98859.48
2018-03-27T23:02:49.398Z,98859.93
2018-03-27T23:05:16.970Z,98866.81
2018-03-27T23:07:44.526Z,98867.29
2018-03-27T23:10:12.098Z,98864.36
2018-03-27T23:12:39.656Z,98867.59
2018-03-27T23:15:07.525Z,98860.00
2018-03-27T23:17:35.089Z,98863.94
2018-03-27T23:20:02.660Z,98868.15
2018-03-27T23:22:33.058Z,98868.36
2018-03-27T23:25:00.776Z,98871.61
2018-03-27T23:27:28.524Z,98877.53
2018-03-27T23:29:56.243Z,98883.34
2018-03-27T23:32:24.061Z,98892.08
2018-03-27T23:34:51.662Z,98885.99
2018-03-27T23:37:19.222Z,98879.05
2018-03-27T23:39:47.014Z,98875.56
2018-03-27T23:42:14.833Z,98874.72
2018-03-27T23:44:42.405Z,98871.48
2018-03-27T23:47:10.173Z,98870.06
2018-03-27T23:49:37.782Z,98859.86
2018-03-27T23:52:05.458Z,98857.25
2018-03-27T23:54:33.224Z,98865.78
2018-03-27T23:57:00.790Z,98861.72
2018-03-27T23:59:28.347Z,98857.52
